Time;durP1;ratioP1;P1;durP2;ratioP2;P2;SDS_P1;SDS_P2;PMS_P1;PMS_P2;Temp;Humidity;BMP_temperature;BMP_pressure;BME280_temperature;BME280_humidity;BME280_pressure;Samples;Min_cycle;Max_cycle;Signal;HPM_P1;HPM_P2
2021/06/11 00:02:28;;;;;;;10.43;8.23;;;;;;;16.13;100.00;98476.75;1890094;76;22116;-65
2021/06/11 00:05:06;;;;;;;10.20;8.18;;;;;;;16.14;100.00;98484.97;1870569;76;22171;-62
2021/06/11 00:07:41;;;;;;;11.15;8.05;;;;;;;16.13;100.00;98480.66;1870775;76;22149;-63
2021/06/11 00:10:18;;;;;;;13.53;9.05;;;;;;;16.16;100.00;98484.50;1870571;76;22157;-64
2021/06/11 00:12:52;;;;;;;11.20;8.40;;;;;;;16.13;100.00;98485.86;1870694;76;20216;-63
2021/06/11 00:15:28;;;;;;;11.03;8.23;;;;;;;16.17;100.00;98482.30;1870667;76;22144;-62
2021/06/11 00:18:04;;;;;;;10.78;8.68;;;;;;;16.21;100.00;98483.97;1854733;76;38619;-63
2021/06/11 00:20:38;;;;;;;10.80;8.95;;;;;;;16.23;100.00;98478.29;1854745;76;38726;-64
2021/06/11 00:23:13;;;;;;;12.10;8.10;;;;;;;16.30;100.00;98482.91;1870669;76;22121;-64
2021/06/11 00:25:48;;;;;;;9.80;7.60;;;;;;;16.31;99.90;98486.37;1889926;76;22232;-63
2021/06/11 00:28:23;;;;;;;9.73;8.23;;;;;;;16.32;99.67;98488.10;1870620;76;22610;-63
2021/06/11 00:30:57;;;;;;;10.93;8.10;;;;;;;16.27;99.51;98481.23;1870644;76;22145;-64
2021/06/11 00:33:32;;;;;;;13.15;8.50;;;;;;;16.23;99.54;98492.61;1870776;76;22153;-63
2021/06/11 00:36:07;;;;;;;10.98;8.43;;;;;;;16.22;99.54;98486.12;1870553;76;22583;-63
2021/06/11 00:38:49;;;;;;;10.03;7.97;;;;;;;16.16;99.57;98484.50;1890081;76;22195;-63
2021/06/11 00:41:24;;;;;;;11.55;7.28;;;;;;;16.11;99.72;98487.63;1889938;76;22266;-63
2021/06/11 00:43:58;;;;;;;10.28;7.92;;;;;;;16.05;99.97;98488.61;1870661;76;22137;-63
2021/06/11 00:46:39;;;;;;;8.63;7.37;;;;;;;16.01;100.00;98487.39;1889901;76;22165;-62
2021/06/11 00:49:13;;;;;;;9.93;7.60;;;;;;;16.01;100.00;98486.95;1870655;76;22160;-64
2021/06/11 00:51:54;;;;;;;11.00;7.97;;;;;;;15.98;100.00;98483.10;1869752;76;22104;-64
2021/06/11 00:54:29;;;;;;;12.88;7.55;;;;;;;15.98;100.00;98484.41;1870659;76;22152;-61
2021/06/11 00:57:05;;;;;;;8.45;7.20;;;;;;;15.98;100.00;98486.16;1870755;76;22140;-64
2021/06/11 00:59:45;;;;;;;9.48;7.33;;;;;;;16.00;100.00;98487.84;1873866;76;27935;-63
2021/06/11 01:02:22;;;;;;;9.18;7.33;;;;;;;16.07;100.00;98489.87;1870643;76;22125;-63
2021/06/11 01:04:57;;;;;;;11.83;7.47;;;;;;;16.08;100.00;98490.30;1870647;76;24230;-63
2021/06/11 01:07:32;;;;;;;8.30;7.10;;;;;;;16.07;100.00;98485.97;1870660;76;22547;-65
2021/06/11 01:10:10;;;;;;;9.80;7.53;;;;;;;16.07;100.00;98493.77;1870704;76;20097;-65
2021/06/11 01:12:46;;;;;;;10.93;7.90;;;;;;;16.09;100.00;98491.16;1870643;76;22156;-63
2021/06/11 01:15:22;;;;;;;9.63;7.78;;;;;;;16.09;100.00;98492.00;1870761;76;22113;-64
2021/06/11 01:17:57;;;;;;;9.03;7.62;;;;;;;16.09;100.00;98492.00;1854780;76;27913;-64
2021/06/11 01:20:33;;;;;;;10.00;7.17;;;;;;;16.14;100.00;98497.98;1870660;76;22149;-63
2021/06/11 01:23:45;;;;;;;8.28;6.78;;;;;;;16.11;100.00;98490.23;1854984;76;38211;-64
2021/06/11 01:26:38;;;;;;;8.85;6.90;;;;;;;16.17;100.00;98489.25;1869777;76;22136;-64
2021/06/11 01:29:22;;;;;;;10.08;6.70;;;;;;;16.18;100.00;98497.47;1889893;76;22112;-65
2021/06/11 01:32:01;;;;;;;8.43;7.22;;;;;;;16.25;100.00;98494.72;1870660;76;22108;-62
2021/06/11 01:34:39;;;;;;;9.93;7.53;;;;;;;16.32;99.62;98498.52;1870485;76;22113;-63
2021/06/11 01:37:32;;;;;;;10.10;6.62;;;;;;;16.31;99.29;98495.48;1869786;76;22605;-64
2021/06/11 01:40:10;;;;;;;10.25;8.23;;;;;;;16.27;99.41;98496.85;1870667;76;22180;-65
2021/06/11 01:42:47;;;;;;;10.85;7.42;;;;;;;16.25;99.22;98499.92;1870651;76;22156;-64
2021/06/11 01:45:23;;;;;;;7.53;6.65;;;;;;;16.26;99.25;98499.50;1870650;76;22117;-63
2021/06/11 01:48:00;;;;;;;8.45;7.00;;;;;;;16.28;99.16;98494.68;1889936;76;22559;-66
2021/06/11 01:50:36;;;;;;;12.35;8.55;;;;;;;16.30;98.96;98500.29;1889947;76;22127;-64
2021/06/11 01:53:13;;;;;;;12.47;8.00;;;;;;;16.26;99.02;98501.66;1870686;76;22147;-63
2021/06/11 01:55:49;;;;;;;10.43;7.47;;;;;;;16.24;99.04;98499.52;1870623;76;22547;-63
2021/06/11 01:58:31;;;;;;;8.88;6.58;;;;;;;16.18;99.12;98497.05;1834386;77;22164;-65
2021/06/11 02:01:33;;;;;;;11.03;7.22;;;;;;;16.16;99.40;98500.56;1869767;76;22600;-64
2021/06/11 02:04:20;;;;;;;10.23;7.50;;;;;;;16.14;99.51;98503.19;1827752;78;21660;-64
2021/06/11 02:06:55;;;;;;;11.75;7.70;;;;;;;16.24;99.40;98506.48;1873820;76;27904;-64
2021/06/11 02:09:29;;;;;;;10.68;6.62;;;;;;;16.33;99.22;98502.83;1889883;76;22112;-64
2021/06/11 02:12:07;;;;;;;9.30;6.62;;;;;;;16.37;99.06;98511.00;1870584;76;22663;-66
2021/06/11 02:14:42;;;;;;;11.22;7.90;;;;;;;16.41;99.13;98512.64;1835071;77;22166;-64
2021/06/11 02:17:18;;;;;;;10.32;8.13;;;;;;;16.50;98.80;98510.72;1854723;76;38248;-66
2021/06/11 02:19:55;;;;;;;11.03;8.93;;;;;;;16.58;98.40;98511.86;1870551;76;22250;-63
2021/06/11 02:22:29;;;;;;;11.25;8.55;;;;;;;16.55;98.21;98510.62;1854757;76;38237;-65
2021/06/11 02:25:06;;;;;;;11.00;7.83;;;;;;;16.56;97.98;98512.33;1890017;76;22516;-62
2021/06/11 02:27:41;;;;;;;11.22;8.03;;;;;;;16.51;98.07;98510.27;1870675;76;22112;-63
2021/06/11 02:30:19;;;;;;;10.63;8.18;;;;;;;16.46;98.06;98511.69;1870756;76;22190;-62
2021/06/11 02:32:53;;;;;;;12.13;8.45;;;;;;;16.38;98.15;98512.70;1889902;76;22551;-64
2021/06/11 02:35:28;;;;;;;11.10;8.13;;;;;;;16.35;98.40;98515.37;1870639;76;22145;-63
2021/06/11 02:38:03;;;;;;;11.00;7.67;;;;;;;16.38;98.52;98515.31;1870514;76;22245;-63
2021/06/11 02:40:38;;;;;;;12.20;8.40;;;;;;;16.39;98.58;98508.78;1870734;76;22610;-64
2021/06/11 02:43:16;;;;;;;11.73;8.08;;;;;;;16.47;98.31;98508.63;1873974;76;27932;-64
2021/06/11 02:45:59;;;;;;;10.25;8.60;;;;;;;16.50;98.17;98512.47;1870611;76;22140;-65
2021/06/11 02:48:39;;;;;;;12.23;8.83;;;;;;;16.48;98.05;98520.75;1890008;76;22116;-65
2021/06/11 02:51:46;;;;;;;10.65;8.08;;;;;;;16.44;98.17;98522.57;1870654;76;22201;-65
2021/06/11 02:54:28;;;;;;;9.93;7.67;;;;;;;16.43;98.27;98526.50;1870422;76;22226;-67
2021/06/11 02:57:20;;;;;;;11.45;8.25;;;;;;;16.41;98.31;98525.25;1870613;76;22144;-64
2021/06/11 03:00:00;;;;;;;11.65;8.68;;;;;;;16.38;98.36;98529.64;1870579;76;22145;-65
2021/06/11 03:02:48;;;;;;;14.00;8.18;;;;;;;16.39;98.57;98527.02;1870694;76;22141;-62
2021/06/11 03:05:35;;;;;;;10.60;7.92;;;;;;;16.37;98.41;98533.99;1827842;78;21573;-65
2021/06/11 03:08:12;;;;;;;11.33;9.05;;;;;;;16.45;98.48;98532.54;1854829;76;28028;-64
2021/06/11 03:10:53;;;;;;;10.65;7.95;;;;;;;16.51;98.37;98531.10;1870689;76;22535;-63
2021/06/11 03:13:43;;;;;;;11.45;8.40;;;;;;;16.46;98.20;98537.73;1760525;80;21222;-64
2021/06/11 03:16:17;;;;;;;9.03;7.37;;;;;;;16.52;98.24;98533.29;1870685;76;22587;-65
2021/06/11 03:18:57;;;;;;;9.98;6.92;;;;;;;16.56;98.18;98523.20;1889922;76;22136;-65
2021/06/11 03:21:55;;;;;;;12.70;8.35;;;;;;;16.56;98.06;98534.47;1870646;76;22140;-63
2021/06/11 03:25:01;;;;;;;8.95;7.42;;;;;;;16.56;97.95;98537.08;1870659;76;22121;-63
2021/06/11 03:27:53;;;;;;;12.00;8.30;;;;;;;16.56;98.03;98535.77;1873834;76;28390;-64
2021/06/11 03:30:31;;;;;;;9.43;7.45;;;;;;;16.64;97.88;98531.30;1870565;76;22100;-62
2021/06/11 03:33:12;;;;;;;10.38;6.75;;;;;;;16.65;97.73;98526.48;1889909;76;22135;-62
2021/06/11 03:35:55;;;;;;;10.38;7.95;;;;;;;16.69;97.52;98533.36;1870638;76;22578;-64
2021/06/11 03:38:33;;;;;;;10.13;7.70;;;;;;;16.64;97.41;98535.20;1870551;76;22171;-66
2021/06/11 03:41:08;;;;;;;11.25;7.83;;;;;;;16.61;97.66;98532.66;1870622;76;22141;-65
2021/06/11 03:43:44;;;;;;;10.10;7.42;;;;;;;16.62;97.59;98534.82;1870608;76;22149;-65
2021/06/11 03:46:31;;;;;;;11.15;7.67;;;;;;;16.61;97.59;98529.17;1869790;76;22592;-64
2021/06/11 03:49:04;;;;;;;10.40;7.35;;;;;;;16.60;97.66;98537.44;1889880;76;22152;-65
2021/06/11 03:51:42;;;;;;;10.25;7.50;;;;;;;16.59;97.85;98529.64;1854737;76;28349;-64
2021/06/11 03:54:19;;;;;;;13.75;7.72;;;;;;;16.66;97.74;98532.13;1870813;76;22611;-63
2021/06/11 03:56:55;;;;;;;10.90;7.55;;;;;;;16.70;97.66;98534.21;1870812;76;22117;-65
2021/06/11 03:59:33;;;;;;;10.65;7.80;;;;;;;16.77;97.55;98532.34;1873857;76;27960;-65
2021/06/11 04:02:08;;;;;;;10.15;7.67;;;;;;;16.88;97.29;98536.45;1870592;76;22145;-65
2021/06/11 04:04:43;;;;;;;10.43;7.92;;;;;;;16.90;96.98;98539.04;1889899;76;22135;-65
2021/06/11 04:07:32;;;;;;;10.25;7.72;;;;;;;16.87;96.83;98538.66;1870646;76;22192;-65
2021/06/11 04:10:24;;;;;;;10.88;7.10;;;;;;;16.77;96.85;98544.92;1747406;80;21208;-63
2021/06/11 04:13:25;;;;;;;16.87;8.78;;;;;;;16.78;97.14;98544.50;1853101;76;22301;-66
2021/06/11 04:16:01;;;;;;;10.08;7.85;;;;;;;16.80;97.17;98547.49;1851901;76;22132;-66
2021/06/11 04:18:40;;;;;;;10.08;7.10;;;;;;;16.83;97.20;98542.21;1871967;76;22257;-62
2021/06/11 04:21:22;;;;;;;10.13;7.05;;;;;;;16.89;97.02;98544.70;1847878;76;22300;-63
2021/06/11 04:24:04;;;;;;;9.70;7.03;;;;;;;16.99;96.68;98557.07;1889879;76;22542;-64
2021/06/11 04:26:52;;;;;;;9.70;6.95;;;;;;;16.97;96.50;98560.18;1791261;80;21484;-65
2021/06/11 04:29:31;;;;;;;10.78;7.70;;;;;;;17.07;96.32;98555.18;1855552;76;22280;-65
2021/06/11 04:32:12;;;;;;;10.88;7.50;;;;;;;17.14;96.13;98552.82;1875258;76;22196;-65
2021/06/11 04:34:47;;;;;;;8.45;7.37;;;;;;;17.24;95.90;98550.02;1858668;76;22235;-67
2021/06/11 04:37:21;;;;;;;10.68;7.35;;;;;;;17.32;95.48;98546.78;1850302;76;22917;-67
2021/06/11 04:39:56;;;;;;;9.80;6.83;;;;;;;17.38;95.26;98551.00;1854934;76;22231;-67
2021/06/11 04:42:32;;;;;;;9.03;7.28;;;;;;;17.44;94.78;98550.42;1853032;76;22269;-65
2021/06/11 04:45:10;;;;;;;10.78;6.75;;;;;;;17.51;94.53;98551.14;1868661;76;22278;-64
2021/06/11 04:47:50;;;;;;;9.60;6.70;;;;;;;17.58;94.24;98552.72;1864502;76;22203;-65
2021/06/11 04:50:26;;;;;;;8.75;6.87;;;;;;;17.69;93.86;98555.06;1859335;76;22171;-64
2021/06/11 04:53:01;;;;;;;11.78;7.97;;;;;;;17.75;93.40;98554.45;1848509;76;28423;-66
2021/06/11 04:55:37;;;;;;;8.43;6.70;;;;;;;17.84;93.00;98562.55;1852005;76;20124;-64
2021/06/11 04:58:17;;;;;;;7.87;6.08;;;;;;;17.85;92.69;98559.02;1864546;76;22221;-67
2021/06/11 05:00:48;;;;;;;8.90;6.30;;;;;;;17.83;92.55;98566.03;1847700;76;22175;-64
2021/06/11 05:03:22;;;;;;;9.03;6.60;;;;;;;17.83;92.37;98565.18;1856874;76;20377;-64
2021/06/11 05:06:08;;;;;;;10.18;6.92;;;;;;;17.82;92.40;98573.92;1831500;77;21106;-65
2021/06/11 05:08:44;;;;;;;12.90;6.75;;;;;;;17.94;92.27;98568.40;1851463;76;22215;-69
2021/06/11 05:11:25;;;;;;;12.25;7.10;;;;;;;17.99;91.98;98562.61;1852684;76;22256;-67
2021/06/11 05:14:00;;;;;;;9.08;6.87;;;;;;;18.03;91.72;98553.78;1852594;76;22179;-69
2021/06/11 05:16:34;;;;;;;8.83;6.92;;;;;;;18.02;91.51;98562.53;1854804;76;22610;-66
2021/06/11 05:19:09;;;;;;;10.95;7.25;;;;;;;17.96;91.47;98555.72;1855960;76;22171;-68
2021/06/11 05:21:44;;;;;;;11.18;6.37;;;;;;;17.97;91.53;98563.09;1855134;76;22188;-67
2021/06/11 05:24:28;;;;;;;9.03;6.50;;;;;;;18.06;91.45;98556.31;1866103;76;22270;-67
2021/06/11 05:27:05;;;;;;;9.28;7.08;;;;;;;18.24;90.76;98557.58;1852130;76;20363;-70
2021/06/11 05:29:40;;;;;;;10.95;6.53;;;;;;;18.38;90.13;98558.53;1854368;76;22221;-69
2021/06/11 05:32:14;;;;;;;8.63;6.22;;;;;;;18.52;89.54;98562.06;1865735;76;22555;-66
2021/06/11 05:34:49;;;;;;;13.62;6.53;;;;;;;18.61;89.22;98561.82;1838447;76;22277;-68
2021/06/11 05:37:23;;;;;;;11.08;6.83;;;;;;;18.62;88.57;98564.83;1870532;76;22148;-67
2021/06/11 05:39:58;;;;;;;8.33;5.80;;;;;;;18.74;88.22;98567.10;1870628;76;22140;-66
2021/06/11 05:42:33;;;;;;;8.78;6.30;;;;;;;18.73;87.91;98579.78;1889880;76;22114;-67
2021/06/11 05:45:19;;;;;;;8.33;6.12;;;;;;;18.70;87.96;98584.22;1857686;77;21260;-70
2021/06/11 05:48:02;;;;;;;8.35;6.20;;;;;;;18.72;87.26;98593.73;1843794;76;22200;-66
2021/06/11 05:50:37;;;;;;;8.73;5.60;;;;;;;18.77;87.40;98587.10;1889919;76;22582;-73
2021/06/11 05:53:22;;;;;;;8.30;6.20;;;;;;;18.70;88.04;98591.63;1861086;77;21134;-62
2021/06/11 05:56:04;;;;;;;8.55;6.30;;;;;;;18.73;87.62;98586.77;1864424;76;22183;-66
2021/06/11 05:58:46;;;;;;;8.60;5.72;;;;;;;18.72;87.68;98583.73;1861761;76;22227;-65
2021/06/11 06:01:32;;;;;;;11.85;5.60;;;;;;;18.70;87.63;98586.83;1841279;77;21197;-67
2021/06/11 06:04:13;;;;;;;14.15;6.37;;;;;;;18.75;87.32;98591.09;1858709;76;22157;-68
2021/06/11 06:07:07;;;;;;;9.43;6.17;;;;;;;18.79;87.02;98591.39;1863542;76;22217;-63
2021/06/11 06:09:54;;;;;;;8.95;5.97;;;;;;;18.82;86.57;98595.21;1854685;76;38239;-65
2021/06/11 06:12:29;;;;;;;9.30;5.40;;;;;;;18.92;86.45;98594.96;1889989;76;22557;-65
2021/06/11 06:15:06;;;;;;;8.75;5.40;;;;;;;18.90;85.84;98589.77;1889872;76;22680;-66
2021/06/11 06:17:40;;;;;;;14.45;5.75;;;;;;;18.88;86.02;98592.91;1834218;77;22658;-68
2021/06/11 06:20:16;;;;;;;7.40;5.05;;;;;;;18.95;85.87;98590.95;1870515;76;22179;-69
2021/06/11 06:22:51;;;;;;;10.32;5.60;;;;;;;19.00;85.48;98602.13;1854753;76;27949;-68
2021/06/11 06:25:32;;;;;;;7.25;5.08;;;;;;;19.15;84.91;98603.45;1889909;76;22614;-68
2021/06/11 06:28:08;;;;;;;7.83;5.25;;;;;;;19.18;84.06;98600.27;1873824;76;27995;-68
2021/06/11 06:30:43;;;;;;;8.73;5.03;;;;;;;19.20;83.46;98601.09;1870649;76;22160;-68
2021/06/11 06:33:25;;;;;;;6.45;5.00;;;;;;;19.17;83.54;98601.19;1889831;76;22204;-67
2021/06/11 06:36:08;;;;;;;7.15;4.60;;;;;;;19.20;83.05;98594.55;1850688;77;22323;-67
2021/06/11 06:38:41;;;;;;;9.05;5.08;;;;;;;19.17;82.72;98605.57;1854894;76;28333;-67
2021/06/11 06:41:17;;;;;;;8.50;4.90;;;;;;;19.27;82.76;98609.17;1854511;76;38239;-69
2021/06/11 06:43:52;;;;;;;5.75;4.35;;;;;;;19.43;82.14;98605.63;1870607;76;22113;-68
2021/06/11 06:46:28;;;;;;;7.28;5.25;;;;;;;19.56;81.85;98610.48;1870521;76;22132;-67
2021/06/11 06:49:02;;;;;;;7.12;4.65;;;;;;;19.69;80.29;98611.84;1889931;76;22139;-68
2021/06/11 06:51:43;;;;;;;6.60;4.20;;;;;;;19.86;79.91;98612.16;1889924;76;22147;-68
2021/06/11 06:54:19;;;;;;;5.50;4.05;;;;;;;20.05;79.15;98612.44;1873893;76;28336;-66
2021/06/11 06:56:54;;;;;;;6.60;4.20;;;;;;;20.33;77.17;98611.05;1870610;76;22162;-70
2021/06/11 06:59:29;;;;;;;4.70;3.70;;;;;;;20.49;76.19;98607.44;1889994;76;22167;-68
2021/06/11 07:02:04;;;;;;;7.83;4.10;;;;;;;20.74;75.74;98610.54;1870736;76;22169;-68
2021/06/11 07:04:39;;;;;;;6.37;4.03;;;;;;;20.92;74.74;98605.08;1854627;76;27926;-68
2021/06/11 07:07:16;;;;;;;9.03;4.28;;;;;;;21.14;73.99;98607.73;1870618;76;22260;-68
2021/06/11 07:09:50;;;;;;;5.97;4.08;;;;;;;21.28;73.25;98609.39;1889890;76;22112;-69
2021/06/11 07:12:27;;;;;;;8.40;4.28;;;;;;;21.12;72.52;98617.47;1870643;76;22156;-69
2021/06/11 07:15:01;;;;;;;6.83;4.00;;;;;;;20.99;72.85;98610.05;1870620;76;20094;-68
2021/06/11 07:17:47;;;;;;;6.45;3.77;;;;;;;20.92;73.19;98608.55;1827584;78;21130;-67
2021/06/11 07:20:22;;;;;;;5.72;3.87;;;;;;;21.07;72.76;98607.59;1870620;76;22129;-68
2021/06/11 07:22:57;;;;;;;5.45;3.75;;;;;;;21.20;71.47;98611.47;1889913;76;22270;-69
2021/06/11 07:25:32;;;;;;;6.12;3.77;;;;;;;21.28;71.78;98608.08;1862016;76;23127;-68
2021/06/11 07:28:06;;;;;;;7.10;3.80;;;;;;;21.45;70.83;98610.95;1863991;76;22156;-71
2021/06/11 07:30:41;;;;;;;12.18;3.85;;;;;;;21.61;69.88;98611.66;1851791;76;22149;-67
2021/06/11 07:33:15;;;;;;;6.65;4.15;;;;;;;21.71;69.46;98613.00;1863403;76;22163;-69
2021/06/11 07:35:50;;;;;;;6.15;3.33;;;;;;;21.81;69.48;98606.46;1887745;76;22140;-68
2021/06/11 07:38:26;;;;;;;6.72;4.22;;;;;;;21.95;68.44;98614.23;1855631;76;22603;-68
2021/06/11 07:41:00;;;;;;;6.80;4.10;;;;;;;22.16;67.86;98616.42;1850416;75;27946;-68
2021/06/11 07:43:41;;;;;;;6.15;3.80;;;;;;;22.32;67.25;98617.08;1847971;76;22234;-73
2021/06/11 07:46:19;;;;;;;10.80;4.15;;;;;;;22.55;64.65;98617.87;1851563;76;22187;-70
2021/06/11 07:48:54;;;;;;;7.37;3.60;;;;;;;22.65;64.61;98617.86;1879461;76;22156;-70
2021/06/11 07:51:42;;;;;;;6.45;3.50;;;;;;;22.68;63.89;98609.83;1827234;78;21121;-70
2021/06/11 07:54:17;;;;;;;8.60;4.50;;;;;;;22.53;63.59;98617.92;1838030;77;22233;-73
2021/06/11 07:56:52;;;;;;;6.28;3.65;;;;;;;22.27;63.48;98626.93;1854809;76;22171;-71
2021/06/11 07:59:29;;;;;;;7.97;3.60;;;;;;;21.98;65.32;98616.73;1863605;76;22188;-71
2021/06/11 08:02:16;;;;;;;5.28;3.72;;;;;;;21.72;66.13;98631.77;1831879;77;21114;-69
2021/06/11 08:04:57;;;;;;;14.10;4.37;;;;;;;21.74;66.78;98629.95;1851064;76;22193;-68
2021/06/11 08:07:32;;;;;;;6.80;3.77;;;;;;;21.68;66.03;98625.80;1839698;76;27892;-68
2021/06/11 08:10:08;;;;;;;6.53;3.72;;;;;;;21.70;65.76;98619.62;1847406;76;22559;-70
2021/06/11 08:12:44;;;;;;;6.87;3.62;;;;;;;21.84;65.06;98626.03;1852594;76;22191;-68
2021/06/11 08:15:19;;;;;;;6.37;3.37;;;;;;;22.15;63.95;98627.41;1866128;76;22178;-68
2021/06/11 08:17:53;;;;;;;6.92;3.55;;;;;;;22.17;62.51;98633.46;1852648;76;22580;-70
2021/06/11 08:20:34;;;;;;;5.22;3.60;;;;;;;22.19;62.06;98634.72;1869126;76;22132;-68
2021/06/11 08:23:15;;;;;;;5.90;3.40;;;;;;;22.26;62.32;98629.61;1865289;76;22208;-70
2021/06/11 08:25:49;;;;;;;7.78;3.65;;;;;;;22.39;62.18;98628.20;1856000;76;22606;-73
2021/06/11 08:28:30;;;;;;;8.83;3.47;;;;;;;22.63;61.92;98640.74;1850543;76;22179;-70
2021/06/11 08:31:16;;;;;;;5.70;2.90;;;;;;;22.81;61.40;98639.08;1809052;78;21179;-70
2021/06/11 08:33:50;;;;;;;5.22;3.05;;;;;;;23.11;60.43;98639.99;1851167;76;23864;-69
2021/06/11 08:36:25;;;;;;;5.87;3.42;;;;;;;23.24;59.53;98632.39;1853821;76;22194;-69
2021/06/11 08:39:07;;;;;;;6.12;3.70;;;;;;;23.39;59.65;98634.31;1862246;75;22306;-67
2021/06/11 08:41:43;;;;;;;8.73;3.35;;;;;;;23.64;57.35;98646.34;1862552;76;22197;-67
2021/06/11 08:44:19;;;;;;;7.65;3.65;;;;;;;23.74;56.97;98648.48;1835526;76;27922;-70
2021/06/11 08:46:55;;;;;;;5.53;3.65;;;;;;;23.91;56.09;98641.06;1835890;76;28000;-70
2021/06/11 08:49:36;;;;;;;5.65;3.40;;;;;;;23.98;55.32;98640.31;1849660;76;22194;-68
2021/06/11 08:52:16;;;;;;;5.08;3.22;;;;;;;24.08;55.62;98636.77;1850972;76;22180;-69
2021/06/11 08:54:51;;;;;;;5.20;3.37;;;;;;;24.12;55.28;98637.86;1851183;76;22184;-68
2021/06/11 08:57:26;;;;;;;6.08;3.35;;;;;;;24.14;55.42;98633.81;1868681;76;22601;-72
2021/06/11 09:00:01;;;;;;;4.90;3.42;;;;;;;24.38;55.73;98635.70;1854679;76;22194;-70
2021/06/11 09:02:58;;;;;;;5.03;3.50;;;;;;;24.94;54.77;98636.37;1827228;76;28025;-73
2021/06/11 09:05:36;;;;;;;4.60;3.20;;;;;;;25.52;52.46;98638.05;1862538;76;22182;-70
2021/06/11 09:08:21;;;;;;;7.35;3.25;;;;;;;25.48;52.21;98627.27;1853192;76;22148;-66
2021/06/11 09:11:19;;;;;;;6.33;3.37;;;;;;;25.35;52.05;98634.16;1862732;76;22179;-67
2021/06/11 09:14:11;;;;;;;5.90;3.10;;;;;;;25.03;53.44;98638.50;1854899;76;22211;-69
2021/06/11 09:16:51;;;;;;;5.33;3.40;;;;;;;24.79;53.13;98624.83;1851842;76;22201;-74
2021/06/11 09:19:27;;;;;;;5.90;3.80;;;;;;;24.71;53.57;98628.34;1853117;76;22199;-68
2021/06/11 09:22:09;;;;;;;4.45;3.25;;;;;;;24.68;54.28;98630.20;1866742;76;22633;-70
2021/06/11 09:24:45;;;;;;;4.20;2.65;;;;;;;24.84;53.40;98625.44;1852073;76;22191;-72
2021/06/11 09:27:21;;;;;;;6.12;3.40;;;;;;;24.63;52.98;98627.42;1851816;76;22167;-70
2021/06/11 09:29:58;;;;;;;4.70;3.45;;;;;;;24.15;54.24;98621.89;1850881;76;22281;-70
2021/06/11 09:32:35;;;;;;;4.50;3.37;;;;;;;23.71;55.47;98613.48;1854220;76;22651;-68
2021/06/11 09:35:09;;;;;;;5.17;3.27;;;;;;;23.40;56.97;98612.30;1858179;76;22243;-67
2021/06/11 09:37:45;;;;;;;6.40;3.58;;;;;;;23.15;57.58;98604.25;1854235;76;22175;-69
2021/06/11 09:40:21;;;;;;;6.40;3.47;;;;;;;22.99;58.52;98608.48;1820730;77;20381;-68
2021/06/11 09:42:59;;;;;;;4.85;3.40;;;;;;;22.80;58.13;98611.54;1855708;76;22150;-67
2021/06/11 09:45:33;;;;;;;5.62;3.70;;;;;;;22.63;58.99;98613.59;1870779;76;22555;-70
2021/06/11 09:48:25;;;;;;;5.97;3.80;;;;;;;22.56;59.58;98609.05;1889925;76;22152;-70
2021/06/11 09:51:05;;;;;;;5.83;3.55;;;;;;;22.64;59.86;98605.61;1854735;76;22293;-68
2021/06/11 09:53:52;;;;;;;5.87;3.80;;;;;;;22.65;60.00;98599.45;1779687;78;21175;-68
2021/06/11 09:56:29;;;;;;;7.20;3.80;;;;;;;22.73;59.36;98611.80;1854705;76;28354;-68
2021/06/11 09:59:04;;;;;;;6.15;3.55;;;;;;;22.75;59.12;98606.48;1870835;76;20101;-67
2021/06/11 10:01:46;;;;;;;5.65;3.60;;;;;;;22.63;60.14;98608.33;1889307;76;22208;-69
2021/06/11 10:04:20;;;;;;;5.55;3.25;;;;;;;22.59;59.64;98603.64;1870559;76;22602;-68
2021/06/11 10:06:56;;;;;;;9.15;3.85;;;;;;;22.48;58.10;98601.48;1870558;76;22184;-67
2021/06/11 10:09:31;;;;;;;4.90;3.40;;;;;;;22.23;59.08;98602.15;1870636;76;22486;-67
2021/06/11 10:12:09;;;;;;;5.30;3.50;;;;;;;22.01;59.60;98611.38;1889919;76;20358;-67
2021/06/11 10:14:45;;;;;;;7.25;3.52;;;;;;;21.96;60.62;98608.08;1870521;76;22582;-67
2021/06/11 10:17:21;;;;;;;6.97;3.83;;;;;;;22.12;60.43;98606.52;1870440;76;22188;-67
2021/06/11 10:19:57;;;;;;;6.45;3.40;;;;;;;22.22;60.39;98605.70;1873808;76;28302;-67
2021/06/11 10:22:33;;;;;;;5.35;3.17;;;;;;;22.33;59.95;98605.63;1870523;76;22241;-68
2021/06/11 10:25:19;;;;;;;8.03;3.80;;;;;;;22.36;59.76;98605.11;1760403;81;21295;-67
2021/06/11 10:28:03;;;;;;;5.47;3.50;;;;;;;22.54;60.16;98599.05;1890003;76;22197;-68
2021/06/11 10:30:38;;;;;;;5.80;3.50;;;;;;;22.74;58.90;98603.44;1889884;76;22567;-68
2021/06/11 10:33:13;;;;;;;4.35;3.30;;;;;;;22.79;59.55;98592.72;1889889;76;22175;-66
2021/06/11 10:35:48;;;;;;;5.75;3.52;;;;;;;22.81;59.31;98582.52;1889891;76;22147;-68
2021/06/11 10:38:35;;;;;;;6.62;3.47;;;;;;;22.66;58.96;98597.20;1870360;76;22189;-68
2021/06/11 10:41:11;;;;;;;6.17;3.52;;;;;;;22.68;59.24;98594.05;1870452;76;22156;-68
2021/06/11 10:43:46;;;;;;;7.85;3.77;;;;;;;22.89;59.21;98595.32;1890004;76;22144;-68
2021/06/11 10:46:26;;;;;;;5.15;3.47;;;;;;;23.02;58.52;98596.50;1862290;76;22604;-67
2021/06/11 10:49:13;;;;;;;6.33;3.70;;;;;;;22.83;58.44;98599.09;1795399;78;21284;-67
2021/06/11 10:51:50;;;;;;;7.05;3.40;;;;;;;22.73;59.10;98592.53;1846107;76;22238;-67
2021/06/11 10:54:28;;;;;;;5.03;3.42;;;;;;;22.72;58.97;98595.63;1851799;76;22164;-67
2021/06/11 10:57:13;;;;;;;6.00;3.50;;;;;;;22.78;59.22;98587.07;1852412;76;22202;-67
2021/06/11 10:59:49;;;;;;;8.45;3.70;;;;;;;22.79;58.99;98588.77;1873796;76;38461;-67
2021/06/11 11:02:29;;;;;;;7.80;3.33;;;;;;;22.83;58.58;98586.41;1856192;76;22140;-66
2021/06/11 11:05:32;;;;;;;5.17;3.37;;;;;;;22.79;58.83;98588.77;1853082;76;20266;-67
2021/06/11 11:08:51;;;;;;;5.28;3.10;;;;;;;22.76;59.40;98582.71;1857301;75;20247;-67
2021/06/11 11:11:34;;;;;;;6.20;2.83;;;;;;;22.97;58.78;98585.33;1855261;76;22170;-67
2021/06/11 11:14:37;;;;;;;4.78;2.80;;;;;;;23.00;58.05;98566.79;1860465;76;22242;-67
2021/06/11 11:17:13;;;;;;;6.35;2.77;;;;;;;23.00;57.64;98582.58;1855871;76;22252;-68
2021/06/11 11:19:58;;;;;;;4.75;3.10;;;;;;;22.85;58.48;98582.78;1853199;76;22220;-66
2021/06/11 11:22:36;;;;;;;5.12;3.00;;;;;;;22.62;58.42;98579.86;1866299;76;22148;-67
2021/06/11 11:25:15;;;;;;;7.10;2.90;;;;;;;22.60;58.96;98586.96;1855075;76;22269;-67
2021/06/11 11:27:53;;;;;;;6.20;2.47;;;;;;;22.56;58.19;98584.06;1855202;76;22531;-67
2021/06/11 11:30:29;;;;;;;4.03;2.35;;;;;;;22.48;58.25;98576.97;1855796;76;22591;-67
2021/06/11 11:33:07;;;;;;;8.90;3.40;;;;;;;22.42;58.58;98579.88;1869810;76;22578;-67
2021/06/11 11:35:47;;;;;;;5.87;2.62;;;;;;;22.40;58.87;98566.79;1870580;76;22220;-68
2021/06/11 11:38:22;;;;;;;5.87;3.15;;;;;;;22.46;58.44;98569.61;1870315;76;22213;-69
2021/06/11 11:40:56;;;;;;;8.23;2.70;;;;;;;22.58;58.39;98566.91;1857177;76;22226;-68
2021/06/11 11:43:37;;;;;;;4.08;2.47;;;;;;;22.55;58.14;98567.90;1869713;76;22612;-66
2021/06/11 11:46:11;;;;;;;3.58;2.30;;;;;;;22.43;58.57;98564.48;1889918;76;22123;-68
2021/06/11 11:48:46;;;;;;;4.25;2.60;;;;;;;22.32;58.66;98558.39;1857777;76;22176;-68
2021/06/11 11:51:22;;;;;;;4.03;2.40;;;;;;;22.06;58.86;98562.11;1855288;76;20117;-68
2021/06/11 11:53:57;;;;;;;5.50;2.77;;;;;;;21.79;58.98;98565.41;1856500;76;22215;-65
2021/06/11 11:56:32;;;;;;;5.87;2.40;;;;;;;21.85;59.38;98559.46;1864487;76;22202;-70
2021/06/11 11:59:07;;;;;;;3.35;2.20;;;;;;;22.09;59.04;98560.19;1857082;76;22163;-68
2021/06/11 12:01:49;;;;;;;7.58;2.25;;;;;;;22.15;58.81;98561.70;1860855;76;22655;-68
2021/06/11 12:04:24;;;;;;;4.87;2.40;;;;;;;22.24;57.83;98554.78;1824850;77;22235;-66
2021/06/11 12:07:00;;;;;;;4.85;2.30;;;;;;;22.26;57.28;98562.14;1849983;76;28010;-68
2021/06/11 12:09:35;;;;;;;4.87;2.47;;;;;;;22.31;57.13;98565.42;1855422;76;22595;-68
2021/06/11 12:12:16;;;;;;;4.85;2.20;;;;;;;22.39;57.31;98551.07;1839350;76;22301;-66
2021/06/11 12:14:55;;;;;;;4.95;2.02;;;;;;;22.48;56.67;98554.63;1870358;76;20102;-66
2021/06/11 12:17:30;;;;;;;5.42;2.27;;;;;;;22.54;56.37;98529.35;1870602;76;22579;-69
2021/06/11 12:20:06;;;;;;;2.98;1.62;;;;;;;22.62;56.38;98561.45;1889588;76;22590;-69
2021/06/11 12:22:41;;;;;;;2.95;1.82;;;;;;;22.71;55.66;98554.45;1870543;76;22536;-69
2021/06/11 12:25:15;;;;;;;4.05;2.00;;;;;;;22.85;55.47;98549.05;1870580;76;22180;-68